createdAt,value
2023-02-06T00:00:45.520Z,104265.88
2023-02-06T00:03:11.811Z,104269.34
2023-02-06T00:05:38.355Z,104268.59
2023-02-06T00:08:07.060Z,104266.91
2023-02-06T00:10:34.032Z,104256.53
2023-02-06T00:13:00.641Z,104256.59
2023-02-06T00:15:27.114Z,104249.75
2023-02-06T00:17:53.566Z,104254.09
2023-02-06T00:20:20.073Z,104250.69
2023-02-06T00:22:46.446Z,104256.78
2023-02-06T00:25:12.862Z,104250.75
2023-02-06T00:27:39.198Z,104256.81
2023-02-06T00:30:06.456Z,104243.91
2023-02-06T00:32:34.798Z,104244.72
2023-02-06T00:35:01.266Z,104242.22
2023-02-06T00:37:27.718Z,104234.50
2023-02-06T00:39:54.125Z,104232.75
2023-02-06T00:42:20.661Z,104232.81
2023-02-06T00:44:47.045Z,104236.28
2023-02-06T00:47:13.814Z,104240.56
2023-02-06T00:49:40.189Z,104233.69
2023-02-06T00:52:06.620Z,104231.09
2023-02-06T00:54:32.981Z,104224.22
2023-02-06T00:56:59.338Z,104227.72
2023-02-06T00:59:25.774Z,104238.09
2023-02-06T01:01:52.196Z,104235.50
2023-02-06T01:04:18.661Z,104236.38
2023-02-06T01:06:45.045Z,104239.00
2023-02-06T01:09:11.455Z,104239.94
2023-02-06T01:11:37.883Z,104236.53
2023-02-06T01:14:04.346Z,104233.13
2023-02-06T01:16:30.728Z,104231.50
2023-02-06T01:18:57.152Z,104228.03
2023-02-06T01:21:25.172Z,104232.38
2023-02-06T01:23:53.913Z,104242.75
2023-02-06T01:26:24.140Z,104247.09
2023-02-06T01:28:50.626Z,104250.66
2023-02-06T01:31:20.352Z,104260.13
2023-02-06T01:33:47.885Z,104256.69
2023-02-06T01:36:15.303Z,104260.97
2023-02-06T01:38:42.431Z,104254.03
2023-02-06T01:41:10.791Z,104249.69
2023-02-06T01:43:42.591Z,104250.53
2023-02-06T01:46:09.712Z,104240.22
2023-02-06T01:48:53.537Z,104235.84
2023-02-06T01:51:24.571Z,104236.72
2023-02-06T01:53:59.906Z,104231.53
2023-02-06T01:56:29.917Z,104234.13
2023-02-06T01:59:00.164Z,104233.22
2023-02-06T02:01:26.622Z,104246.19
2023-02-06T02:03:59.608Z,104250.44
2023-02-06T02:06:27.649Z,104248.72
2023-02-06T02:08:58.236Z,104242.69
2023-02-06T02:11:30.372Z,104251.28
2023-02-06T02:13:57.174Z,104246.94
2023-02-06T02:16:40.464Z,104239.09
2023-02-06T02:19:37.212Z,104237.28
2023-02-06T02:22:51.421Z,104235.53
2023-02-06T02:25:39.399Z,104240.69
2023-02-06T02:28:30.629Z,104241.53
2023-02-06T02:31:25.694Z,104248.41
2023-02-06T02:34:08.473Z,104245.84
2023-02-06T02:36:57.335Z,104243.22
2023-02-06T02:39:46.667Z,104238.88
2023-02-06T02:42:17.015Z,104228.59
2023-02-06T02:44:53.220Z,104227.63
2023-02-06T02:47:23.390Z,104225.88
2023-02-06T02:49:50.388Z,104233.66
2023-02-06T02:52:16.807Z,104233.63
2023-02-06T02:54:43.171Z,104232.78
2023-02-06T02:57:14.742Z,104228.41
2023-02-06T02:59:45.444Z,104214.59
2023-02-06T03:02:27.532Z,104210.25
2023-02-06T03:04:59.528Z,104206.75
2023-02-06T03:07:43.922Z,104206.75
2023-02-06T03:10:19.741Z,104216.16
2023-02-06T03:12:58.237Z,104223.94
2023-02-06T03:15:35.888Z,104221.38
2023-02-06T03:18:16.527Z,104211.03
2023-02-06T03:20:46.432Z,104217.13
2023-02-06T03:23:16.916Z,104206.72
2023-02-06T03:25:46.390Z,104210.16
2023-02-06T03:28:27.406Z,104204.97
2023-02-06T03:30:56.796Z,104206.69
2023-02-06T03:33:28.645Z,104202.38
2023-02-06T03:35:57.640Z,104204.13
2023-02-06T03:38:24.819Z,104213.69
2023-02-06T03:40:53.363Z,104214.50
2023-02-06T03:43:23.625Z,104221.47
2023-02-06T03:45:56.036Z,104209.31
2023-02-06T03:48:29.726Z,104206.78
2023-02-06T03:50:59.328Z,104207.66
2023-02-06T03:53:26.563Z,104192.16
2023-02-06T03:55:59.666Z,104193.97
2023-02-06T03:58:26.261Z,104205.28
2023-02-06T04:00:53.196Z,104209.72
2023-02-06T04:03:21.413Z,104214.06
2023-02-06T04:05:47.845Z,104216.72
2023-02-06T04:08:14.213Z,104217.56
2023-02-06T04:10:40.565Z,104221.91
2023-02-06T04:13:06.937Z,104227.09
2023-02-06T04:15:33.534Z,104225.41
2023-02-06T04:18:01.604Z,104222.06
2023-02-06T04:20:29.618Z,104214.28
2023-02-06T04:22:56.708Z,104215.19
2023-02-06T04:25:23.191Z,104210.91
2023-02-06T04:27:50.084Z,104205.78
2023-02-06T04:30:17.871Z,104212.66
2023-02-06T04:32:44.411Z,104204.03
2023-02-06T04:35:10.804Z,104199.69
2023-02-06T04:37:37.660Z,104199.75
2023-02-06T04:40:04.694Z,104202.34
2023-02-06T04:42:31.106Z,104208.44
2023-02-06T04:44:57.516Z,104204.16
2023-02-06T04:47:23.898Z,104203.31
2023-02-06T04:49:50.412Z,104205.91
2023-02-06T04:52:16.767Z,104206.81
2023-02-06T04:54:43.202Z,104204.22
2023-02-06T04:57:09.556Z,104209.41
2023-02-06T04:59:35.914Z,104209.41
2023-02-06T05:02:02.380Z,104212.84
2023-02-06T05:04:28.786Z,104216.28
2023-02-06T05:06:55.231Z,104214.56
2023-02-06T05:09:21.648Z,104220.63
2023-02-06T05:11:48.034Z,104223.22
2023-02-06T05:14:14.390Z,104218.88
2023-02-06T05:16:40.810Z,104211.94
2023-02-06T05:19:07.256Z,104215.44
2023-02-06T05:21:33.695Z,104218.88
2023-02-06T05:24:00.312Z,104220.56
2023-02-06T05:26:26.721Z,104229.25
2023-02-06T05:28:53.188Z,104231.88
2023-02-06T05:31:20.289Z,104236.22
2023-02-06T05:33:51.863Z,104234.53
2023-02-06T05:36:20.362Z,104237.13
2023-02-06T05:38:47.235Z,104248.44
2023-02-06T05:41:13.819Z,104251.88
2023-02-06T05:43:40.457Z,104251.03
2023-02-06T05:46:07.038Z,104242.41
2023-02-06T05:48:34.766Z,104247.59
2023-02-06T05:51:01.720Z,104240.72
2023-02-06T05:53:28.150Z,104237.22
2023-02-06T05:55:54.544Z,104223.44
2023-02-06T05:58:21.221Z,104222.56
2023-02-06T06:00:47.655Z,104232.94
2023-02-06T06:03:14.184Z,104230.34
2023-02-06T06:05:41.094Z,104220.81
2023-02-06T06:08:07.462Z,104222.56
2023-02-06T06:10:33.910Z,104220.88
2023-02-06T06:13:00.344Z,104219.13
2023-02-06T06:15:26.769Z,104227.72
2023-02-06T06:17:53.116Z,104231.19
2023-02-06T06:20:19.583Z,104238.97
2023-02-06T06:22:45.908Z,104245.91
2023-02-06T06:25:12.318Z,104239.84
2023-02-06T06:27:39.190Z,104243.31
2023-02-06T06:30:06.056Z,104246.75
2023-02-06T06:32:32.414Z,104240.69
2023-02-06T06:34:58.831Z,104245.84
2023-02-06T06:37:25.209Z,104254.53
2023-02-06T06:39:51.636Z,104246.75
2023-02-06T06:42:18.075Z,104230.34
2023-02-06T06:44:44.487Z,104236.38
2023-02-06T06:47:10.919Z,104240.69
2023-02-06T06:49:37.385Z,104234.63
2023-02-06T06:52:07.005Z,104232.91
2023-02-06T06:54:35.282Z,104231.16
2023-02-06T06:57:01.735Z,104228.56
2023-02-06T06:59:28.173Z,104220.72
2023-02-06T07:01:54.642Z,104216.41
2023-02-06T07:04:21.377Z,104216.41
2023-02-06T07:06:47.770Z,104208.56
2023-02-06T07:09:14.588Z,104212.91
2023-02-06T07:11:41.393Z,104215.47
2023-02-06T07:14:08.597Z,104218.91
2023-02-06T07:16:34.985Z,104214.56
2023-02-06T07:19:01.615Z,104199.88
2023-02-06T07:21:28.072Z,104197.25
2023-02-06T07:23:54.465Z,104192.91
2023-02-06T07:26:21.039Z,104189.41
2023-02-06T07:28:49.670Z,104193.66
2023-02-06T07:31:16.363Z,104197.09
2023-02-06T07:33:42.882Z,104197.88
2023-02-06T07:36:14.891Z,104191.69
2023-02-06T07:38:41.339Z,104186.50
2023-02-06T07:41:08.260Z,104179.56
2023-02-06T07:43:34.692Z,104176.88
2023-02-06T07:46:03.658Z,104183.75
2023-02-06T07:48:30.786Z,104180.25
2023-02-06T07:51:04.111Z,104175.00
2023-02-06T07:53:30.557Z,104175.00
2023-02-06T07:55:56.928Z,104163.69
2023-02-06T07:58:23.376Z,104154.13
2023-02-06T08:00:49.882Z,104142.84
2023-02-06T08:03:16.376Z,104151.44
2023-02-06T08:05:42.744Z,104146.16
2023-02-06T08:08:10.632Z,104144.38
2023-02-06T08:10:40.052Z,104146.91
2023-02-06T08:13:07.402Z,104134.78
2023-02-06T08:15:34.155Z,104130.41
2023-02-06T08:18:00.812Z,104123.44
2023-02-06T08:20:27.224Z,104126.84
2023-02-06T08:22:54.512Z,104125.06
2023-02-06T08:25:23.748Z,104116.34
2023-02-06T08:27:57.334Z,104113.59
2023-02-06T08:30:24.072Z,104108.34
2023-02-06T08:32:50.626Z,104112.59
2023-02-06T08:35:17.143Z,104108.25
2023-02-06T08:37:44.052Z,104119.41
2023-02-06T08:40:11.659Z,104112.41
2023-02-06T08:42:38.812Z,104106.28
2023-02-06T08:45:05.757Z,104099.28
2023-02-06T08:47:32.161Z,104101.75
2023-02-06T08:49:59.308Z,104109.44
2023-02-06T08:52:27.190Z,104109.34
2023-02-06T08:54:53.537Z,104119.69
2023-02-06T08:57:20.347Z,104122.19
2023-02-06T08:59:47.354Z,104123.81
2023-02-06T09:02:13.840Z,104135.81
2023-02-06T09:04:42.703Z,104142.66
2023-02-06T09:07:09.152Z,104135.63
2023-02-06T09:09:35.644Z,104137.25
2023-02-06T09:12:03.790Z,104136.22
2023-02-06T09:14:31.084Z,104139.53
2023-02-06T09:16:58.335Z,104143.81
2023-02-06T09:19:25.917Z,104148.91
2023-02-06T09:21:52.575Z,104147.81
2023-02-06T09:24:19.145Z,104149.47
2023-02-06T09:26:59.038Z,104156.34
2023-02-06T09:29:28.820Z,104153.53
2023-02-06T09:31:57.254Z,104155.19
2023-02-06T09:34:26.188Z,104155.91
2023-02-06T09:36:57.869Z,104160.06
2023-02-06T09:39:25.348Z,104159.88
2023-02-06T09:41:55.553Z,104149.25
2023-02-06T09:44:43.942Z,104137.81
2023-02-06T09:47:30.150Z,104146.22
2023-02-06T09:50:07.892Z,104152.25
2023-02-06T09:52:37.407Z,104153.84
2023-02-06T09:55:14.209Z,104159.75
2023-02-06T09:57:52.653Z,104156.16
2023-02-06T10:00:34.678Z,104146.50
2023-02-06T10:03:39.923Z,104150.56
2023-02-06T10:06:33.939Z,104157.41
2023-02-06T10:09:05.826Z,104154.63
2023-02-06T10:11:56.711Z,104161.28
2023-02-06T10:14:44.049Z,104161.06
2023-02-06T10:17:23.394Z,104160.81
2023-02-06T10:20:17.922Z,104156.31
2023-02-06T10:23:06.644Z,104146.53
2023-02-06T10:25:37.931Z,104136.94
2023-02-06T10:28:31.829Z,104134.88
2023-02-06T10:31:07.340Z,104134.78
2023-02-06T10:33:54.866Z,104139.75
2023-02-06T10:36:54.892Z,104141.09
2023-02-06T10:39:40.139Z,104140.94
2023-02-06T10:42:37.504Z,104137.13
2023-02-06T10:45:41.014Z,104131.59
2023-02-06T10:48:19.307Z,104134.09
2023-02-06T10:50:56.507Z,104139.34
2023-02-06T10:53:28.947Z,104141.78
2023-02-06T10:56:00.268Z,104138.22
2023-02-06T10:58:35.856Z,104144.06
2023-02-06T11:01:13.920Z,104146.44
2023-02-06T11:04:12.730Z,104138.97
2023-02-06T11:06:42.520Z,104134.41
2023-02-06T11:09:10.251Z,104136.00
2023-02-06T11:11:40.042Z,104135.06
2023-02-06T11:14:48.853Z,104138.25
2023-02-06T11:17:18.539Z,104139.22
2023-02-06T11:19:45.248Z,104140.00
2023-02-06T11:22:15.637Z,104133.75
2023-02-06T11:25:03.384Z,104130.97
2023-02-06T11:27:33.550Z,104137.91
2023-02-06T11:30:07.776Z,104134.59
2023-02-06T11:32:41.412Z,104133.66
2023-02-06T11:35:31.974Z,104137.91
2023-02-06T11:38:21.254Z,104139.09
2023-02-06T11:41:00.825Z,104137.47
2023-02-06T11:43:31.830Z,104136.66
2023-02-06T11:46:17.498Z,104139.72
2023-02-06T11:49:08.183Z,104136.78
2023-02-06T11:51:54.132Z,104130.41
2023-02-06T11:54:31.450Z,104130.28
2023-02-06T11:57:10.302Z,104121.56
2023-02-06T11:59:51.236Z,104117.38
2023-02-06T12:02:26.081Z,104114.88
2023-02-06T12:04:59.832Z,104112.34
2023-02-06T12:07:35.553Z,104108.53
2023-02-06T12:10:06.679Z,104100.78
2023-02-06T12:12:42.918Z,104102.25
2023-02-06T12:15:45.458Z,104096.88
2023-02-06T12:18:22.090Z,104096.06
2023-02-06T12:21:01.414Z,104092.53
2023-02-06T12:23:50.169Z,104075.66
2023-02-06T12:26:21.886Z,104069.78
2023-02-06T12:28:48.249Z,104073.03
2023-02-06T12:32:05.638Z,104069.94
2023-02-06T12:34:54.880Z,104072.41
2023-02-06T12:37:36.032Z,104073.97
2023-02-06T12:40:02.543Z,104072.25
2023-02-06T12:42:47.637Z,104066.00
2023-02-06T12:46:10.425Z,104071.06
2023-02-06T12:48:45.814Z,104060.63
2023-02-06T12:51:25.841Z,104059.84
2023-02-06T12:54:00.636Z,104051.22
2023-02-06T12:56:34.056Z,104057.44
2023-02-06T12:59:09.751Z,104054.72
2023-02-06T13:01:45.593Z,104054.53
2023-02-06T13:04:23.882Z,104049.22
2023-02-06T13:06:56.529Z,104040.75
2023-02-06T13:09:36.761Z,104041.91
2023-02-06T13:12:11.570Z,104043.81
2023-02-06T13:14:44.584Z,104033.63
2023-02-06T13:17:19.430Z,104037.78
2023-02-06T13:19:45.849Z,104035.25
2023-02-06T13:22:13.367Z,104019.66
2023-02-06T13:24:41.779Z,104032.94
2023-02-06T13:27:08.125Z,104031.16
2023-02-06T13:29:42.746Z,104018.69
2023-02-06T13:32:12.320Z,104017.13
2023-02-06T13:34:44.253Z,104014.56
2023-02-06T13:37:26.019Z,104009.88
2023-02-06T13:40:25.703Z,104011.38
2023-02-06T13:43:07.585Z,104008.44
2023-02-06T13:45:43.850Z,104008.97
2023-02-06T13:48:38.247Z,104007.50
2023-02-06T13:51:06.674Z,104007.97
2023-02-06T13:54:11.128Z,104002.09
2023-02-06T13:57:05.056Z,104001.94
2023-02-06T13:59:55.569Z,104001.50
2023-02-06T14:02:21.838Z,104010.16
2023-02-06T14:04:49.960Z,104002.91
2023-02-06T14:07:34.928Z,104003.59
2023-02-06T14:10:31.866Z,104004.25
2023-02-06T14:13:12.053Z,103997.72
2023-02-06T14:15:52.080Z,103999.28
2023-02-06T14:18:28.152Z,104000.56
2023-02-06T14:21:09.174Z,104005.91
2023-02-06T14:24:09.088Z,104002.47
2023-02-06T14:27:03.526Z,104005.47
2023-02-06T14:29:58.030Z,104001.50
2023-02-06T14:32:48.932Z,104003.66
2023-02-06T14:35:37.089Z,104007.38
2023-02-06T14:38:27.868Z,104006.75
2023-02-06T14:40:56.574Z,104008.84
2023-02-06T14:43:25.405Z,104007.34
2023-02-06T14:46:06.992Z,104008.56
2023-02-06T14:48:44.132Z,104013.06
2023-02-06T14:51:36.737Z,104009.00
2023-02-06T14:54:31.484Z,104012.84
2023-02-06T14:57:00.626Z,104012.13
2023-02-06T14:59:27.342Z,103996.78
2023-02-06T15:01:55.964Z,104002.91
2023-02-06T15:04:23.594Z,104010.72
2023-02-06T15:07:02.142Z,104005.63
2023-02-06T15:09:40.355Z,104001.22
2023-02-06T15:12:23.770Z,104004.00
2023-02-06T15:14:55.779Z,104003.41
2023-02-06T15:17:24.151Z,104002.69
2023-02-06T15:19:50.584Z,104003.59
2023-02-06T15:22:23.862Z,104001.00
2023-02-06T15:25:04.512Z,103994.22
2023-02-06T15:27:33.843Z,103990.97
2023-02-06T15:30:02.786Z,103989.22
2023-02-06T15:32:38.579Z,103984.28
2023-02-06T15:35:20.762Z,103989.69
2023-02-06T15:37:47.456Z,103991.09
2023-02-06T15:40:25.552Z,103999.06
2023-02-06T15:42:53.268Z,103994.19
2023-02-06T15:45:23.916Z,104001.34
2023-02-06T15:47:52.318Z,103989.56
2023-02-06T15:50:23.775Z,103992.31
2023-02-06T15:52:50.427Z,103999.66
2023-02-06T15:55:35.681Z,103990.25
2023-02-06T15:58:04.430Z,103993.19
2023-02-06T16:00:35.880Z,103994.94
2023-02-06T16:03:07.957Z,103989.13
2023-02-06T16:05:41.462Z,103990.28
2023-02-06T16:08:16.242Z,103993.28
2023-02-06T16:10:45.363Z,103986.72
2023-02-06T16:13:19.669Z,103980.84
2023-02-06T16:16:04.832Z,103982.06
2023-02-06T16:18:34.675Z,103982.38
2023-02-06T16:21:16.449Z,103993.03
2023-02-06T16:23:50.035Z,104000.28
2023-02-06T16:26:27.784Z,103987.53
2023-02-06T16:28:56.983Z,103995.41
2023-02-06T16:31:28.450Z,104000.97
2023-02-06T16:33:56.875Z,104003.91
2023-02-06T16:36:24.082Z,104010.25
2023-02-06T16:39:02.738Z,104009.50
2023-02-06T16:41:42.119Z,104012.28
2023-02-06T16:44:13.663Z,104014.97
2023-02-06T16:46:40.670Z,104010.06
2023-02-06T16:49:19.892Z,104000.72
2023-02-06T16:51:47.740Z,104005.28
2023-02-06T16:54:27.380Z,104001.47
2023-02-06T16:56:56.760Z,104002.69
2023-02-06T16:59:23.684Z,104004.03
2023-02-06T17:01:50.096Z,103999.91
2023-02-06T17:04:16.494Z,104011.28
2023-02-06T17:06:44.985Z,104009.53
2023-02-06T17:09:17.213Z,104007.00
2023-02-06T17:11:46.640Z,104020.06
2023-02-06T17:14:13.112Z,104017.69
2023-02-06T17:16:44.112Z,104019.47
2023-02-06T17:19:14.623Z,104025.72
2023-02-06T17:21:41.147Z,104019.00
2023-02-06T17:24:08.908Z,104013.88
2023-02-06T17:26:35.530Z,104012.34
2023-02-06T17:29:01.915Z,104006.38
2023-02-06T17:31:28.682Z,104017.97
2023-02-06T17:33:55.230Z,104009.41
2023-02-06T17:36:29.247Z,104007.75
2023-02-06T17:38:58.843Z,104014.72
2023-02-06T17:41:26.691Z,104013.13
2023-02-06T17:43:53.205Z,104012.31
2023-02-06T17:46:19.816Z,104000.38
2023-02-06T17:48:46.253Z,103996.16
2023-02-06T17:51:12.792Z,104008.38
2023-02-06T17:53:39.295Z,104011.91
2023-02-06T17:56:14.283Z,104011.91
2023-02-06T17:58:41.745Z,104011.16
2023-02-06T18:01:13.661Z,104007.72
2023-02-06T18:03:41.332Z,104007.84
2023-02-06T18:06:08.509Z,104006.16
2023-02-06T18:08:34.971Z,104007.94
2023-02-06T18:11:09.628Z,104013.22
2023-02-06T18:13:36.126Z,104006.44
2023-02-06T18:16:02.504Z,104004.84
2023-02-06T18:18:31.313Z,104004.91
2023-02-06T18:20:58.619Z,104000.56
2023-02-06T18:23:25.967Z,103994.63
2023-02-06T18:25:52.700Z,104000.78
2023-02-06T18:28:19.928Z,103990.38
2023-02-06T18:30:46.688Z,103989.59
2023-02-06T18:33:13.645Z,103990.50
2023-02-06T18:35:44.459Z,103995.84
2023-02-06T18:38:12.017Z,103995.88
2023-02-06T18:40:40.387Z,103994.19
2023-02-06T18:43:08.133Z,103995.97
2023-02-06T18:45:37.342Z,103991.66
2023-02-06T18:48:06.038Z,103982.22
2023-02-06T18:50:33.742Z,103972.84
2023-02-06T18:53:00.387Z,103981.59
2023-02-06T18:55:27.266Z,103980.81
2023-02-06T18:57:53.711Z,103978.34
2023-02-06T19:00:22.220Z,103968.06
2023-02-06T19:02:49.160Z,103971.56
2023-02-06T19:05:15.710Z,103970.78
2023-02-06T19:07:42.322Z,103966.47
2023-02-06T19:10:12.949Z,103969.03
2023-02-06T19:12:39.804Z,103970.88
2023-02-06T19:15:06.759Z,103970.00
2023-02-06T19:17:33.219Z,103961.44
2023-02-06T19:20:00.108Z,103957.13
2023-02-06T19:22:27.046Z,103961.50
2023-02-06T19:24:53.959Z,103969.34
2023-02-06T19:27:21.476Z,103965.00
2023-02-06T19:29:48.835Z,103954.75
2023-02-06T19:32:15.224Z,103965.22
2023-02-06T19:34:43.980Z,103971.25
2023-02-06T19:37:10.930Z,103964.50
2023-02-06T19:39:40.272Z,103961.19
2023-02-06T19:42:15.480Z,103969.84
2023-02-06T19:44:42.908Z,103975.97
2023-02-06T19:47:10.245Z,103987.16
2023-02-06T19:49:37.712Z,103985.47
2023-02-06T19:52:04.344Z,103991.53
2023-02-06T19:54:31.091Z,103990.69
2023-02-06T19:56:57.663Z,103994.94
2023-02-06T19:59:26.993Z,103996.63
2023-02-06T20:01:58.803Z,103999.22
2023-02-06T20:04:29.044Z,104003.56
2023-02-06T20:06:55.840Z,103993.28
2023-02-06T20:09:23.074Z,103999.34
2023-02-06T20:11:50.106Z,104001.19
2023-02-06T20:14:17.575Z,103991.75
2023-02-06T20:16:44.949Z,104007.31
2023-02-06T20:19:15.597Z,103997.03
2023-02-06T20:21:51.639Z,104000.53
2023-02-06T20:24:21.833Z,103992.84
2023-02-06T20:26:50.730Z,103989.44
2023-02-06T20:29:30.116Z,103985.97
2023-02-06T20:31:57.832Z,103985.16
2023-02-06T20:34:25.109Z,103981.75
2023-02-06T20:36:52.499Z,103983.50
2023-02-06T20:39:19.784Z,103974.81
2023-02-06T20:41:46.348Z,103986.91
2023-02-06T20:44:13.995Z,103985.16
2023-02-06T20:46:41.180Z,103988.59
2023-02-06T20:49:13.974Z,103987.66
2023-02-06T20:51:40.944Z,103991.13
2023-02-06T20:54:07.430Z,103991.13
2023-02-06T20:56:34.480Z,103998.06
2023-02-06T20:59:01.461Z,103994.69
2023-02-06T21:01:30.470Z,104003.31
2023-02-06T21:04:03.316Z,103992.13
2023-02-06T21:06:30.826Z,103990.38
2023-02-06T21:09:00.261Z,103992.19
2023-02-06T21:11:40.387Z,103987.84
2023-02-06T21:14:07.633Z,103993.97
2023-02-06T21:16:35.365Z,103997.47
2023-02-06T21:19:02.658Z,103995.66
2023-02-06T21:21:29.545Z,103998.22
2023-02-06T21:23:56.186Z,103990.38
2023-02-06T21:26:24.018Z,103986.84
2023-02-06T21:28:51.115Z,103981.66
2023-02-06T21:31:33.302Z,103982.41
2023-02-06T21:34:05.005Z,103983.22
2023-02-06T21:36:31.972Z,103971.16
2023-02-06T21:39:10.364Z,103972.00
2023-02-06T21:41:41.820Z,103976.38
2023-02-06T21:44:08.244Z,103966.88
2023-02-06T21:46:34.787Z,103966.91
2023-02-06T21:49:01.369Z,103962.59
2023-02-06T21:51:28.082Z,103966.06
2023-02-06T21:53:54.570Z,103971.28
2023-02-06T21:56:26.647Z,103965.22
2023-02-06T21:58:53.865Z,103964.34
2023-02-06T22:01:26.850Z,103963.47
2023-02-06T22:03:53.323Z,103960.13
2023-02-06T22:06:20.312Z,103955.84
2023-02-06T22:08:51.764Z,103957.63
2023-02-06T22:11:26.662Z,103959.34
2023-02-06T22:13:57.173Z,103961.16
2023-02-06T22:16:24.767Z,103956.00
2023-02-06T22:18:51.562Z,103952.59
2023-02-06T22:21:20.821Z,103954.34
2023-02-06T22:23:49.196Z,103945.72
2023-02-06T22:26:18.035Z,103952.66
2023-02-06T22:28:44.980Z,103950.06
2023-02-06T22:31:17.162Z,103946.56
2023-02-06T22:33:43.993Z,103958.75
2023-02-06T22:36:12.683Z,103959.69
2023-02-06T22:38:39.853Z,103957.16
2023-02-06T22:41:08.863Z,103953.69
2023-02-06T22:43:37.450Z,103955.41
2023-02-06T22:46:05.317Z,103948.50
2023-02-06T22:48:32.039Z,103956.25
2023-02-06T22:51:09.799Z,103953.63
2023-02-06T22:53:40.600Z,103964.84
2023-02-06T22:56:35.018Z,103957.91
2023-02-06T22:59:06.023Z,103959.63
2023-02-06T23:01:36.373Z,103952.75
2023-02-06T23:04:04.788Z,103946.72
2023-02-06T23:06:33.513Z,103946.75
2023-02-06T23:09:00.733Z,103953.72
2023-02-06T23:11:28.205Z,103958.09
2023-02-06T23:13:57.216Z,103959.88
2023-02-06T23:16:24.036Z,103958.16
2023-02-06T23:18:51.033Z,103959.94
2023-02-06T23:21:20.668Z,103970.31
2023-02-06T23:23:47.827Z,103968.56
2023-02-06T23:26:15.906Z,103975.50
2023-02-06T23:28:42.718Z,103978.16
2023-02-06T23:31:10.262Z,103984.19
2023-02-06T23:33:37.309Z,103985.09
2023-02-06T23:36:10.524Z,103985.03
2023-02-06T23:38:37.163Z,103979.03
2023-02-06T23:41:19.148Z,103980.72
2023-02-06T23:43:53.865Z,103985.06
2023-02-06T23:46:20.818Z,103979.03
2023-02-06T23:48:48.175Z,103984.19
2023-02-06T23:51:15.565Z,103988.53
2023-02-06T23:53:42.190Z,103979.91
2023-02-06T23:56:13.575Z,103982.50
2023-02-06T23:58:40.367Z,103982.56
